Latest Weather Observations for Kempsey Airport

IDN60801

Issued at 11:33 am EDT Tuesday 23 December 2014 (issued every 30 minutes, with the page automatically refreshed every 10 minutes)

About weather observations | Map of weather stations | Latest weather observations for NSW | Other Formats
Station Details ID: 059007 Name: KEMPSEY AIRPORT AWS Lat: -31.07 Lon: 152.77 Height: 13.0 m
Data from the previous 72 hours. | See also: Recent months for locations in New South Wales
Date/Time
EDT
Temp
°C
App
Temp
°C
Dew
Point
Rel
Hum
%
Delta-T
°C
Wind Press
QNH
hPa
Press
MSL
hPa
Rain
since 9 am
mm
Dir
 
Spd
km/h
Gust
km/h
Spd
kts
Gust
kts
23/11:30am 24.7 24.5 14.8 54 5.9 NNE 9 13 5 7 1016.3 1016.2 0.0
23/11:00am 25.1 24.8 14.3 51 6.4 N 9 15 5 8 1016.5 1016.4 0.0
23/10:30am 25.3 24.8 13.8 49 6.8 NNE 9 17 5 9 1016.6 1016.5 0.0
23/10:00am 25.6 23.9 14.7 51 6.5 NE 17 22 9 12 1016.7 1016.6 0.0
23/09:30am 24.7 24.8 14.5 53 6.1 NE 7 17 4 9 1016.7 1016.6 0.0
23/09:00am 23.9 23.9 15.1 58 5.3 NNW 9 15 5 8 1016.9 1016.8 0.0
23/08:30am 23.1 23.7 15.7 63 4.5 NNW 7 9 4 5 1016.9 1016.8 0.0
23/08:00am 22.0 22.4 15.4 66 3.9 N 7 9 4 5 1016.5 1016.4 0.0
23/07:30am 21.0 22.0 16.4 75 2.8 NE 6 7 3 4 1016.3 1016.2 0.0
23/07:00am 20.3 22.7 16.9 81 2.1 CALM 0 0 0 0 1016.2 1016.1 0.0
23/06:30am 16.8 18.6 15.5 92 0.8 CALM 0 0 0 0 1016.1 1016.0 0.0
23/06:00am 16.2 17.7 14.6 90 0.9 CALM 0 0 0 0 1015.9 1015.8 0.0
23/05:30am 16.6 18.3 15.1 91 0.9 CALM 0 0 0 0 1015.8 1015.7 0.0
23/05:00am 17.4 19.1 15.2 87 1.3 CALM 0 0 0 0 1015.5 1015.4 0.0
23/04:30am 18.0 19.8 15.4 85 1.5 CALM 0 0 0 0 1015.6 1015.5 0.0
23/04:00am 19.0 21.0 15.9 82 1.8 CALM 0 0 0 0 1015.5 1015.4 0.0
23/03:30am 19.4 21.5 16.2 82 1.9 CALM 0 0 0 0 1015.5 1015.4 0.0
23/03:00am 19.4 21.0 15.9 80 2.1 ESE 2 6 1 3 1015.7 1015.6 0.0
23/02:30am 20.0 22.0 16.0 78 2.4 CALM 0 0 0 0 1015.9 1015.8 0.0
23/02:00am 20.2 22.3 16.2 78 2.4 CALM 0 0 0 0 1016.6 1016.5 0.0
23/01:30am 20.1 22.3 16.5 80 2.2 CALM 0 0 0 0 1017.0 1016.9 0.0
23/01:00am 20.1 22.0 15.7 76 2.6 CALM 0 0 0 0 1017.4 1017.3 0.0
23/12:30am 20.8 22.0 15.8 73 3.0 NE 4 7 2 4 1017.5 1017.4 0.0
23/12:00am 20.9 22.5 15.9 73 3.0 WSW 2 7 1 4 1017.7 1017.6 0.0
 
Date/Time
EDT
Temp
°C
App
Temp
°C
Dew
Point
Rel
Hum
%
Delta-T
°C
Wind Press
QNH
hPa
Press
MSL
hPa
Rain
since 9 am
mm
Dir
 
Spd
km/h
Gust
km/h
Spd
kts
Gust
kts
22/11:30pm 20.8 22.6 15.6 72 3.1 CALM 0 0 0 0 1018.1 1018.0 0.0
22/11:00pm 21.2 21.6 15.3 69 3.5 ENE 7 9 4 5 1018.1 1018.0 0.0
22/10:30pm 21.3 21.4 15.6 70 3.4 ENE 9 15 5 8 1018.0 1017.9 0.0
22/10:00pm 21.3 21.1 15.8 71 3.3 NE 11 17 6 9 1018.0 1017.9 0.0
22/09:30pm 21.5 21.8 16.0 71 3.3 ENE 9 13 5 7 1018.0 1017.9 0.0
22/09:00pm 21.8 22.1 15.9 69 3.5 ENE 9 15 5 8 1018.0 1017.9 0.0
22/08:30pm 22.4 21.9 16.0 67 3.9 ENE 13 19 7 10 1018.0 1017.9 0.0
22/08:00pm 22.6 21.3 15.9 66 4.0 NE 17 22 9 12 1017.7 1017.6 0.0
22/07:30pm 23.0 21.1 15.8 64 4.3 NE 20 26 11 14 1017.6 1017.5 0.0
22/07:00pm 23.5 21.2 15.8 62 4.6 NE 22 30 12 16 1017.1 1017.0 0.0
22/06:30pm 24.2 22.0 15.9 59 5.0 NE 22 32 12 17 1016.9 1016.8 0.0
22/06:00pm 24.5 22.7 16.0 59 5.2 NE 20 28 11 15 1016.8 1016.7 0.0
22/05:30pm 25.4 22.6 16.3 57 5.6 NE 26 33 14 18 1015.9 1015.8 0.0
22/05:00pm 25.1 21.9 15.4 55 5.9 NE 26 37 14 20 1015.9 1015.8 0.0
22/04:30pm 26.3 23.4 16.0 53 6.3 NE 26 44 14 24 1015.8 1015.7 0.0
22/04:00pm 26.7 23.8 16.0 52 6.6 ENE 26 35 14 19 1016.2 1016.1 0.0
22/03:30pm 27.0 24.4 16.0 51 6.8 ENE 24 33 13 18 1016.4 1016.3 0.0
22/03:00pm 27.0 24.1 16.0 51 6.7 ENE 26 37 14 20 1016.6 1016.5 0.0
22/02:30pm 27.7 25.4 16.6 50 6.9 ENE 24 35 13 19 1016.9 1016.8 0.0
22/02:00pm 27.9 25.4 16.2 49 7.2 ENE 24 39 13 21 1017.1 1017.0 0.0
22/01:30pm 27.9 25.2 15.5 46 7.6 ENE 24 37 13 20 1017.3 1017.2 0.0
22/01:00pm 28.1 24.9 15.4 46 7.7 ENE 26 41 14 22 1017.5 1017.4 0.0
22/12:30pm 27.9 25.0 15.2 46 7.7 ENE 24 32 13 17 1017.5 1017.4 0.0
22/12:00pm 28.0 26.2 16.0 48 7.4 ENE 20 30 11 16 1017.7 1017.6 0.0
22/11:30am 28.2 27.5 16.5 49 7.3 E 15 26 8 14 1017.9 1017.8 0.0
22/11:00am 27.5 27.0 14.8 45 7.7 NNE 11 22 6 12 1018.0 1017.9 0.0
22/10:30am 27.0 25.6 13.4 43 8.0 N 13 20 7 11 1018.1 1018.0 0.0
22/10:00am 26.8 25.7 14.2 46 7.5 NE 13 20 7 11 1018.1 1018.0 0.0
22/09:30am 25.5 25.0 15.8 55 5.9 NNE 13 20 7 11 1017.9 1017.8 0.0
22/09:00am 24.3 25.2 16.0 60 5.0 NNW 6 15 3 8 1017.9 1017.8 0.0
22/08:30am 23.1 24.4 17.1 69 3.7 NW 6 9 3 5 1018.0 1017.9 0.0
22/08:00am 21.3 22.6 17.1 77 2.6 NNE 6 9 3 5 1017.9 1017.8 0.0
22/07:30am 19.3 21.9 17.6 90 1.0 CALM 0 0 0 0 1017.8 1017.7 0.0
22/07:00am 17.3 19.4 16.3 94 0.6 CALM 0 0 0 0 1017.5 1017.4 0.0
22/06:30am 14.9 16.1 13.8 93 0.6 CALM 0 0 0 0 1017.2 1017.1 0.0
22/06:00am 14.6 15.7 13.5 93 0.6 CALM 0 0 0 0 1016.8 1016.7 0.0
22/05:30am 15.1 16.4 14.0 93 0.6 CALM 0 0 0 0 1016.7 1016.6 0.0
22/05:00am 14.4 15.4 13.1 92 0.7 CALM 0 0 0 0 1016.4 1016.3 0.0
22/04:30am 15.1 16.3 13.8 92 0.7 CALM 0 0 0 0 1016.1 1016.0 0.0
22/04:00am 15.6 17.0 14.3 92 0.7 CALM 0 0 0 0 1015.9 1015.8 0.0
22/03:30am 15.8 17.2 14.5 92 0.7 CALM 0 0 0 0 1016.4 1016.3 0.0
22/03:00am 15.7 17.0 14.1 90 0.9 CALM 0 0 0 0 1016.7 1016.6 0.0
22/02:30am 16.3 17.8 14.7 90 0.9 CALM 0 0 0 0 1016.6 1016.5 0.0
22/02:00am 16.9 18.6 15.2 90 1.0 CALM 0 0 0 0 1017.0 1016.9 0.0
22/01:30am 17.3 19.0 15.3 88 1.2 CALM 0 0 0 0 1017.3 1017.2 0.0
22/01:00am 18.2 20.2 16.0 87 1.3 CALM 0 0 0 0 1017.8 1017.7 0.0
22/12:30am 18.5 20.6 16.3 87 1.3 CALM 0 0 0 0 1018.3 1018.2 0.0
22/12:00am 17.9 19.6 15.3 85 1.5 CALM 0 0 0 0 1018.9 1018.8 0.0
 
Date/Time
EDT
Temp
°C
App
Temp
°C
Dew
Point
Rel
Hum
%
Delta-T
°C
Wind Press
QNH
hPa
Press
MSL
hPa
Rain
since 9 am
mm
Dir
 
Spd
km/h
Gust
km/h
Spd
kts
Gust
kts
21/11:30pm 19.2 21.2 15.9 81 2.0 CALM 0 0 0 0 1018.9 1018.8 0.0
21/11:00pm 19.6 21.6 16.1 80 2.1 CALM 0 0 0 0 1018.9 1018.8 0.0
21/10:30pm 19.8 21.7 15.7 77 2.4 CALM 0 0 0 0 1018.7 1018.6 0.0
21/10:00pm 21.1 22.8 15.2 69 3.5 CALM 0 0 0 0 1018.4 1018.3 0.0
21/09:30pm 22.0 22.6 15.8 68 3.7 NE 7 9 4 5 1018.4 1018.3 0.0
21/09:00pm 22.3 22.1 15.6 66 4.0 NE 11 17 6 9 1018.3 1018.2 0.0
21/08:30pm 22.6 21.6 15.7 65 4.1 NE 15 20 8 11 1018.1 1018.0 0.0
21/08:00pm 22.8 21.4 15.6 64 4.3 NE 17 24 9 13 1017.7 1017.6 0.0
21/07:30pm 23.0 21.2 15.6 63 4.4 NE 19 24 10 13 1017.5 1017.4 0.0
21/07:00pm 23.3 22.0 15.9 63 4.5 NE 17 24 9 13 1017.2 1017.1 0.0
21/06:30pm 23.4 21.6 16.0 63 4.5 NNE 20 30 11 16 1017.0 1016.9 0.0
21/06:00pm 23.7 21.6 16.2 63 4.6 NE 22 28 12 15 1016.6 1016.5 0.0
21/05:30pm 23.9 22.4 16.7 64 4.4 NE 20 30 11 16 1016.3 1016.2 0.0
21/05:00pm 24.2 22.2 16.5 62 4.7 NE 22 33 12 18 1016.5 1016.4 0.0
21/04:30pm 25.5 23.1 17.4 61 5.1 NE 26 35 14 19 1016.4 1016.3 0.0
21/04:00pm 25.9 24.0 18.6 64 4.6 ENE 26 39 14 21 1016.5 1016.4 0.0
21/03:30pm 25.5 23.5 18.2 64 4.6 ENE 26 39 14 21 1016.5 1016.4 0.0
21/03:00pm 25.9 23.7 18.6 64 4.6 E 28 41 15 22 1016.5 1016.4 0.0
21/02:30pm 26.5 23.7 18.1 60 5.3 E 30 41 16 22 1016.3 1016.2 0.0
21/02:00pm 26.8 24.5 17.6 57 5.8 ENE 26 37 14 20 1016.5 1016.4 0.0
21/01:30pm 26.8 25.5 18.1 59 5.5 E 22 33 12 18 1016.7 1016.6 0.0
21/01:00pm 25.7 25.1 17.6 61 5.1 ENE 17 24 9 13 1017.1 1017.0 0.0
21/12:30pm 25.5 24.4 17.4 61 5.1 E 19 28 10 15 1017.5 1017.4 0.0
21/12:00pm 26.7 25.2 18.6 61 5.2 E 24 32 13 17 1017.8 1017.7 0.0
21/11:30am 26.0 26.5 17.4 59 5.4 NE 11 19 6 10 1018.1 1018.0 0.0
21/11:00am 25.5 26.3 17.4 61 5.0 NNW 9 17 5 9 1018.4 1018.3 0.0
21/10:30am 24.0 23.9 16.0 61 4.9 NNW 11 15 6 8 1018.5 1018.4 0.0
21/10:00am 25.2 25.5 16.9 60 5.1 NNE 11 17 6 9 1018.5 1018.4 0.0
21/09:30am 23.9 24.3 16.4 63 4.6 NNW 9 13 5 7 1018.9 1018.8 0.0
21/09:00am 22.7 23.8 16.5 68 3.8 N 6 9 3 5 1019.0 1018.9 0.0
21/08:30am 21.6 24.2 17.4 77 2.6 CALM 0 0 0 0 1019.0 1018.9 0.0
21/08:00am 20.5 22.9 16.9 80 2.2 CALM 0 0 0 0 1018.7 1018.6 0.0
21/07:30am 20.0 22.4 17.0 83 1.8 CALM 0 0 0 0 1018.3 1018.2 0.0
21/07:00am 19.6 22.0 17.0 85 1.6 CALM 0 0 0 0 1018.0 1017.9 0.0
21/06:30am 19.2 21.5 16.8 86 1.4 CALM 0 0 0 0 1017.7 1017.6 0.0
21/06:00am 19.0 21.2 16.6 86 1.4 CALM 0 6 0 3 1017.4 1017.3 0.0
21/05:30am 19.0 21.3 16.8 87 1.3 CALM 0 0 0 0 1017.3 1017.2 0.0
21/05:00am 19.0 21.3 16.8 87 1.3 CALM 0 0 0 0 1017.1 1017.0 0.0
21/04:30am 18.9 20.0 16.7 87 1.3 NW 6 7 3 4 1017.0 1016.9 0.0
21/04:00am 19.0 21.2 16.6 86 1.4 CALM 0 0 0 0 1017.0 1016.9 0.0
21/03:30am 18.9 21.1 16.5 86 1.4 CALM 0 0 0 0 1017.0 1016.9 0.0
21/03:00am 19.0 20.0 16.4 85 1.6 NNW 6 7 3 4 1017.4 1017.3 0.0
21/02:30am 19.0 20.9 16.6 86 1.4 WNW 2 6 1 3 1017.5 1017.4 0.0
21/02:00am 18.9 19.9 16.3 85 1.6 WNW 6 11 3 6 1017.7 1017.6 0.0
21/01:30am 19.0 19.3 16.0 83 1.8 NW 9 15 5 8 1018.1 1018.0 0.0
21/01:00am 19.1 19.8 16.1 83 1.8 WNW 7 11 4 6 1018.3 1018.2 0.0
21/12:30am 19.3 19.7 16.2 82 1.9 NW 9 11 5 6 1018.6 1018.5 0.0
21/12:00am 19.3 20.1 16.3 83 1.8 NW 7 9 4 5 1019.0 1018.9 0.0
 
Date/Time
EDT
Temp
°C
App
Temp
°C
Dew
Point
Rel
Hum
%
Delta-T
°C
Wind Press
QNH
hPa
Press
MSL
hPa
Rain
since 9 am
mm
Dir
 
Spd
km/h
Gust
km/h
Spd
kts
Gust
kts
20/11:30pm 19.4 20.1 16.2 82 1.9 W 7 9 4 5 1019.1 1019.0 0.0
20/11:00pm 19.5 19.9 16.2 81 2.0 W 9 11 5 6 1019.3 1019.2 0.0
20/10:30pm 19.5 19.9 16.3 82 1.9 W 9 11 5 6 1019.2 1019.1 0.0
20/10:00pm 19.6 20.0 16.3 81 2.0 WSW 9 11 5 6 1019.1 1019.0 0.0
20/09:30pm 19.6 20.0 16.4 82 1.9 WSW 9 11 5 6 1018.9 1018.8 0.0
20/09:00pm 19.9 21.9 16.0 78 2.3 CALM 0 0 0 0 1018.5 1018.4 0.0
20/08:30pm 19.9 20.8 16.0 78 2.3 NNE 6 7 3 4 1018.1 1018.0 0.0
20/08:00pm 19.9 18.9 15.5 76 2.6 E 15 19 8 10 1017.7 1017.6 0.0
20/07:30pm 21.3 21.0 15.4 69 3.5 NE 11 15 6 8 1017.2 1017.1 0.0
20/07:00pm 21.9 21.7 14.8 64 4.2 E 9 15 5 8 1016.6 1016.5 0.0
20/06:30pm 22.3 21.0 14.7 62 4.5 E 15 17 8 9 1015.9 1015.8 0.0
20/06:00pm 22.5 21.9 14.6 61 4.7 ENE 11 15 6 8 1015.5 1015.4 0.0
20/05:30pm 22.7 21.0 14.8 61 4.7 ENE 17 24 9 13 1015.1 1015.0 0.0
20/05:00pm 23.1 22.2 14.9 60 4.9 ENE 13 20 7 11 1015.0 1014.9 0.0
20/04:30pm 23.7 22.1 14.9 57 5.2 ENE 17 24 9 13 1015.0 1014.9 0.0
20/04:00pm 24.2 22.3 15.1 56 5.4 E 19 26 10 14 1015.2 1015.1 0.0
20/03:30pm 25.0 22.9 14.8 53 6.1 E 19 26 10 14 1015.4 1015.3 0.0
20/03:00pm 25.7 23.2 15.1 52 6.4 E 22 30 12 16 1015.5 1015.4 0.0
20/02:30pm 25.8 23.7 15.2 52 6.4 ENE 20 28 11 15 1015.9 1015.8 0.0
20/02:00pm 25.5 23.6 15.2 53 6.2 ENE 19 30 10 16 1016.0 1015.9 0.0
20/01:30pm 25.0 22.9 14.8 53 6.1 E 19 28 10 15 1016.4 1016.3 0.0
20/01:00pm 24.9 23.8 16.3 59 5.3 ESE 17 24 9 13 1016.8 1016.7 0.0
20/12:30pm 23.7 22.7 14.7 57 5.3 ESE 13 24 7 13 1017.2 1017.1 0.0
20/12:00pm 24.7 23.4 15.9 58 5.3 ESE 17 26 9 14 1017.4 1017.3 0.0

Other Formats:

Comma delimited format used in spreadsheet applications
http://www.bom.gov.au/fwo/IDN60801/IDN60801.94785.axf

JavaScript Object Notation format (JSON) in row-major order
http://www.bom.gov.au/fwo/IDN60801/IDN60801.94785.json